sensor_id;sensor_type;location;lat;lon;timestamp;pressure;altitude;pressure_sealevel;temperature;humidity
27685;BME280;46113;50.130;8.526;2023-07-20T00:02:39;98847.50;;;16.29;50.99
27685;BME280;46113;50.130;8.526;2023-07-20T00:05:09;98848.69;;;16.06;50.22
27685;BME280;46113;50.130;8.526;2023-07-20T00:07:36;98847.00;;;16.05;51.20
27685;BME280;46113;50.130;8.526;2023-07-20T00:10:03;98844.22;;;16.16;51.01
27685;BME280;46113;50.130;8.526;2023-07-20T00:12:29;98845.91;;;16.17;51.23
27685;BME280;46113;50.130;8.526;2023-07-20T00:14:56;98849.22;;;15.99;51.90
27685;BME280;46113;50.130;8.526;2023-07-20T00:17:23;98842.78;;;16.02;51.57
27685;BME280;46113;50.130;8.526;2023-07-20T00:19:50;98837.56;;;15.91;51.58
27685;BME280;46113;50.130;8.526;2023-07-20T00:22:17;98848.47;;;15.87;51.88
27685;BME280;46113;50.130;8.526;2023-07-20T00:24:43;98851.78;;;15.80;51.84
27685;BME280;46113;50.130;8.526;2023-07-20T00:27:10;98850.34;;;15.75;52.05
27685;BME280;46113;50.130;8.526;2023-07-20T00:29:37;98851.13;;;15.66;52.38
27685;BME280;46113;50.130;8.526;2023-07-20T00:32:04;98856.69;;;15.53;52.97
27685;BME280;46113;50.130;8.526;2023-07-20T00:34:32;98853.19;;;15.53;53.14
27685;BME280;46113;50.130;8.526;2023-07-20T00:36:59;98844.19;;;15.54;52.89
27685;BME280;46113;50.130;8.526;2023-07-20T00:39:26;98847.78;;;15.43;53.76
27685;BME280;46113;50.130;8.526;2023-07-20T00:41:53;98851.63;;;15.50;53.45
27685;BME280;46113;50.130;8.526;2023-07-20T00:44:20;98843.78;;;15.58;53.13
27685;BME280;46113;50.130;8.526;2023-07-20T00:46:46;98847.31;;;15.59;53.14
27685;BME280;46113;50.130;8.526;2023-07-20T00:49:15;98849.97;;;15.59;53.06
27685;BME280;46113;50.130;8.526;2023-07-20T00:51:43;98847.25;;;15.49;53.23
27685;BME280;46113;50.130;8.526;2023-07-20T00:54:10;98846.09;;;15.42;53.43
27685;BME280;46113;50.130;8.526;2023-07-20T00:56:37;98844.25;;;15.42;53.54
27685;BME280;46113;50.130;8.526;2023-07-20T00:59:04;98853.75;;;15.35;53.51
27685;BME280;46113;50.130;8.526;2023-07-20T01:01:31;98849.00;;;15.39;53.53
27685;BME280;46113;50.130;8.526;2023-07-20T01:03:58;98849.13;;;15.37;53.53
27685;BME280;46113;50.130;8.526;2023-07-20T01:09:11;98842.75;;;15.28;53.71
27685;BME280;46113;50.130;8.526;2023-07-20T01:11:53;98854.16;;;15.30;53.84
27685;BME280;46113;50.130;8.526;2023-07-20T01:14:21;98847.97;;;15.30;54.18
27685;BME280;46113;50.130;8.526;2023-07-20T01:16:49;98848.50;;;15.23;53.94
27685;BME280;46113;50.130;8.526;2023-07-20T01:19:18;98847.47;;;15.15;54.29
27685;BME280;46113;50.130;8.526;2023-07-20T01:21:52;98845.16;;;15.10;54.41
27685;BME280;46113;50.130;8.526;2023-07-20T01:28:10;98851.47;;;15.09;54.46
27685;BME280;46113;50.130;8.526;2023-07-20T01:30:51;98852.63;;;15.16;54.85
27685;BME280;46113;50.130;8.526;2023-07-20T01:33:21;98857.72;;;15.19;54.62
27685;BME280;46113;50.130;8.526;2023-07-20T01:35:56;98857.47;;;15.22;54.40
27685;BME280;46113;50.130;8.526;2023-07-20T01:38:24;98850.19;;;15.24;54.61
27685;BME280;46113;50.130;8.526;2023-07-20T01:40:52;98852.31;;;15.09;54.96
27685;BME280;46113;50.130;8.526;2023-07-20T01:43:20;98855.00;;;15.09;54.50
27685;BME280;46113;50.130;8.526;2023-07-20T01:45:46;98853.09;;;15.00;55.53
27685;BME280;46113;50.130;8.526;2023-07-20T01:48:13;98853.66;;;15.04;54.94
27685;BME280;46113;50.130;8.526;2023-07-20T01:50:41;98856.47;;;14.91;55.49
27685;BME280;46113;50.130;8.526;2023-07-20T01:53:08;98859.84;;;14.93;55.31
27685;BME280;46113;50.130;8.526;2023-07-20T01:55:35;98856.72;;;14.88;55.75
27685;BME280;46113;50.130;8.526;2023-07-20T01:58:01;98855.50;;;14.92;55.15
27685;BME280;46113;50.130;8.526;2023-07-20T02:00:30;98850.28;;;14.90;55.91
27685;BME280;46113;50.130;8.526;2023-07-20T02:02:56;98852.97;;;14.90;55.76
27685;BME280;46113;50.130;8.526;2023-07-20T02:05:23;98861.34;;;14.86;55.91
27685;BME280;46113;50.130;8.526;2023-07-20T02:07:51;98848.16;;;14.84;56.50
27685;BME280;46113;50.130;8.526;2023-07-20T02:10:19;98856.34;;;14.92;55.89
27685;BME280;46113;50.130;8.526;2023-07-20T02:12:45;98864.34;;;14.92;56.29
27685;BME280;46113;50.130;8.526;2023-07-20T02:15:12;98853.59;;;14.82;56.08
27685;BME280;46113;50.130;8.526;2023-07-20T02:17:40;98860.41;;;14.75;56.08
27685;BME280;46113;50.130;8.526;2023-07-20T02:20:08;98857.63;;;14.65;56.24
27685;BME280;46113;50.130;8.526;2023-07-20T02:22:37;98854.03;;;14.55;56.17
27685;BME280;46113;50.130;8.526;2023-07-20T02:25:06;98852.50;;;14.41;56.26
27685;BME280;46113;50.130;8.526;2023-07-20T02:27:34;98863.16;;;14.29;56.46
27685;BME280;46113;50.130;8.526;2023-07-20T02:30:01;98857.00;;;14.17;56.94
27685;BME280;46113;50.130;8.526;2023-07-20T02:32:28;98859.00;;;14.02;57.83
27685;BME280;46113;50.130;8.526;2023-07-20T02:34:54;98860.25;;;13.98;57.64
27685;BME280;46113;50.130;8.526;2023-07-20T02:37:21;98862.66;;;13.90;58.28
27685;BME280;46113;50.130;8.526;2023-07-20T02:39:48;98856.47;;;13.89;58.45
27685;BME280;46113;50.130;8.526;2023-07-20T02:42:15;98869.53;;;13.81;58.38
27685;BME280;46113;50.130;8.526;2023-07-20T02:44:42;98868.56;;;13.82;57.97
27685;BME280;46113;50.130;8.526;2023-07-20T02:47:09;98868.91;;;13.77;58.38
27685;BME280;46113;50.130;8.526;2023-07-20T02:49:35;98877.13;;;13.63;59.05
27685;BME280;46113;50.130;8.526;2023-07-20T02:52:02;98877.00;;;13.64;58.73
27685;BME280;46113;50.130;8.526;2023-07-20T02:54:29;98869.28;;;13.61;58.70
27685;BME280;46113;50.130;8.526;2023-07-20T02:56:57;98870.97;;;13.62;59.21
27685;BME280;46113;50.130;8.526;2023-07-20T02:59:23;98874.22;;;13.66;59.47
27685;BME280;46113;50.130;8.526;2023-07-20T03:01:50;98877.47;;;13.70;58.83
27685;BME280;46113;50.130;8.526;2023-07-20T03:04:17;98879.19;;;13.71;59.64
27685;BME280;46113;50.130;8.526;2023-07-20T03:06:44;98877.13;;;13.74;59.14
27685;BME280;46113;50.130;8.526;2023-07-20T03:09:10;98878.56;;;13.67;59.25
27685;BME280;46113;50.130;8.526;2023-07-20T03:11:38;98879.06;;;13.72;59.15
27685;BME280;46113;50.130;8.526;2023-07-20T03:14:05;98880.28;;;13.68;58.57
27685;BME280;46113;50.130;8.526;2023-07-20T03:16:32;98883.44;;;13.73;58.42
27685;BME280;46113;50.130;8.526;2023-07-20T03:19:01;98884.16;;;13.75;58.59
27685;BME280;46113;50.130;8.526;2023-07-20T03:21:28;98884.63;;;13.81;58.28
27685;BME280;46113;50.130;8.526;2023-07-20T03:23:55;98886.31;;;13.82;58.53
27685;BME280;46113;50.130;8.526;2023-07-20T03:26:22;98877.38;;;13.83;58.71
27685;BME280;46113;50.130;8.526;2023-07-20T03:28:50;98874.13;;;13.79;58.77
27685;BME280;46113;50.130;8.526;2023-07-20T03:31:16;98874.72;;;13.71;58.84
27685;BME280;46113;50.130;8.526;2023-07-20T03:33:44;98878.44;;;13.69;58.88
27685;BME280;46113;50.130;8.526;2023-07-20T03:36:11;98876.88;;;13.66;58.86
27685;BME280;46113;50.130;8.526;2023-07-20T03:38:39;98879.66;;;13.64;58.96
27685;BME280;46113;50.130;8.526;2023-07-20T03:41:06;98886.19;;;13.60;58.92
27685;BME280;46113;50.130;8.526;2023-07-20T03:43:32;98885.94;;;13.63;58.98
27685;BME280;46113;50.130;8.526;2023-07-20T03:45:59;98879.78;;;13.63;59.18
27685;BME280;46113;50.130;8.526;2023-07-20T03:48:26;98881.59;;;13.62;58.67
27685;BME280;46113;50.130;8.526;2023-07-20T03:50:54;98875.56;;;13.60;59.30
27685;BME280;46113;50.130;8.526;2023-07-20T03:53:23;98884.34;;;13.61;59.30
27685;BME280;46113;50.130;8.526;2023-07-20T03:55:51;98897.66;;;13.61;59.13
27685;BME280;46113;50.130;8.526;2023-07-20T03:58:25;98889.28;;;13.54;59.41
27685;BME280;46113;50.130;8.526;2023-07-20T04:01:05;98894.50;;;13.67;59.22
27685;BME280;46113;50.130;8.526;2023-07-20T04:03:40;98889.47;;;13.75;59.05
27685;BME280;46113;50.130;8.526;2023-07-20T04:06:15;98897.06;;;13.80;58.94
27685;BME280;46113;50.130;8.526;2023-07-20T04:08:50;98893.56;;;13.79;58.91
27685;BME280;46113;50.130;8.526;2023-07-20T04:11:26;98896.72;;;13.85;58.52
27685;BME280;46113;50.130;8.526;2023-07-20T04:13:57;98903.97;;;13.83;58.83
27685;BME280;46113;50.130;8.526;2023-07-20T04:16:24;98907.38;;;13.85;58.75
27685;BME280;46113;50.130;8.526;2023-07-20T04:18:57;98903.13;;;13.94;58.67
27685;BME280;46113;50.130;8.526;2023-07-20T04:21:27;98904.22;;;14.02;58.99
27685;BME280;46113;50.130;8.526;2023-07-20T04:23:54;98903.06;;;14.07;58.74
27685;BME280;46113;50.130;8.526;2023-07-20T04:26:21;98905.59;;;14.08;58.94
27685;BME280;46113;50.130;8.526;2023-07-20T04:28:52;98903.50;;;14.00;59.08
27685;BME280;46113;50.130;8.526;2023-07-20T04:31:33;98900.53;;;14.16;58.38
27685;BME280;46113;50.130;8.526;2023-07-20T04:34:07;98898.09;;;14.13;58.80
27685;BME280;46113;50.130;8.526;2023-07-20T04:36:35;98903.19;;;14.16;58.32
27685;BME280;46113;50.130;8.526;2023-07-20T04:39:03;98902.94;;;14.20;58.42
27685;BME280;46113;50.130;8.526;2023-07-20T04:41:42;98902.47;;;14.26;58.55
27685;BME280;46113;50.130;8.526;2023-07-20T04:44:10;98900.78;;;14.36;58.15
27685;BME280;46113;50.130;8.526;2023-07-20T04:46:37;98899.91;;;14.36;58.46
27685;BME280;46113;50.130;8.526;2023-07-20T04:49:04;98902.34;;;14.39;58.11
27685;BME280;46113;50.130;8.526;2023-07-20T04:51:35;98903.66;;;14.33;58.40
27685;BME280;46113;50.130;8.526;2023-07-20T04:54:02;98901.50;;;14.27;58.73
27685;BME280;46113;50.130;8.526;2023-07-20T04:56:34;98897.38;;;14.34;58.34
27685;BME280;46113;50.130;8.526;2023-07-20T04:59:04;98897.72;;;14.41;58.73
27685;BME280;46113;50.130;8.526;2023-07-20T05:01:31;98896.13;;;14.50;58.47
27685;BME280;46113;50.130;8.526;2023-07-20T05:03:59;98906.44;;;14.54;58.81
27685;BME280;46113;50.130;8.526;2023-07-20T05:06:27;98905.63;;;14.87;58.00
27685;BME280;46113;50.130;8.526;2023-07-20T05:08:53;98901.50;;;15.05;57.53
27685;BME280;46113;50.130;8.526;2023-07-20T05:11:21;98901.50;;;15.27;56.57
27685;BME280;46113;50.130;8.526;2023-07-20T05:13:48;98904.16;;;15.27;55.41
27685;BME280;46113;50.130;8.526;2023-07-20T05:16:20;98900.50;;;15.60;55.52
27685;BME280;46113;50.130;8.526;2023-07-20T05:18:48;98901.06;;;16.07;53.83
27685;BME280;46113;50.130;8.526;2023-07-20T05:21:15;98911.13;;;15.82;53.93
27685;BME280;46113;50.130;8.526;2023-07-20T05:23:41;98913.38;;;15.98;54.71
27685;BME280;46113;50.130;8.526;2023-07-20T05:26:08;98922.28;;;16.08;54.47
27685;BME280;46113;50.130;8.526;2023-07-20T05:28:35;98916.00;;;16.19;54.04
27685;BME280;46113;50.130;8.526;2023-07-20T05:31:03;98917.81;;;15.87;54.35
27685;BME280;46113;50.130;8.526;2023-07-20T05:33:29;98917.41;;;15.92;52.99
27685;BME280;46113;50.130;8.526;2023-07-20T05:35:56;98914.72;;;16.13;52.89
27685;BME280;46113;50.130;8.526;2023-07-20T05:38:23;98915.41;;;16.15;52.19
27685;BME280;46113;50.130;8.526;2023-07-20T05:40:49;98916.94;;;16.08;52.45
27685;BME280;46113;50.130;8.526;2023-07-20T05:43:16;98919.38;;;16.21;52.74
27685;BME280;46113;50.130;8.526;2023-07-20T05:45:43;98914.78;;;16.33;52.86
27685;BME280;46113;50.130;8.526;2023-07-20T05:48:11;98914.09;;;16.31;52.63
27685;BME280;46113;50.130;8.526;2023-07-20T05:50:43;98914.16;;;16.20;53.34
27685;BME280;46113;50.130;8.526;2023-07-20T05:53:10;98913.94;;;16.33;53.69
27685;BME280;46113;50.130;8.526;2023-07-20T05:55:36;98914.47;;;16.67;52.40
27685;BME280;46113;50.130;8.526;2023-07-20T05:58:03;98913.84;;;17.05;51.24
27685;BME280;46113;50.130;8.526;2023-07-20T06:00:30;98919.91;;;17.17;51.20
27685;BME280;46113;50.130;8.526;2023-07-20T06:02:57;98920.44;;;17.70;49.29
27685;BME280;46113;50.130;8.526;2023-07-20T06:05:29;98914.56;;;18.14;48.34
27685;BME280;46113;50.130;8.526;2023-07-20T06:08:04;98917.16;;;18.44;47.04
27685;BME280;46113;50.130;8.526;2023-07-20T06:14:43;98916.94;;;20.01;44.52
27685;BME280;46113;50.130;8.526;2023-07-20T06:17:11;98923.22;;;20.52;43.61
27685;BME280;46113;50.130;8.526;2023-07-20T06:19:38;98915.72;;;20.64;42.69
27685;BME280;46113;50.130;8.526;2023-07-20T06:22:05;98922.31;;;20.70;40.58
27685;BME280;46113;50.130;8.526;2023-07-20T06:24:31;98923.88;;;20.46;41.46
27685;BME280;46113;50.130;8.526;2023-07-20T06:26:58;98926.06;;;20.51;41.16
27685;BME280;46113;50.130;8.526;2023-07-20T06:29:25;98920.34;;;21.14;40.91
27685;BME280;46113;50.130;8.526;2023-07-20T06:31:52;98912.66;;;21.44;39.95
27685;BME280;46113;50.130;8.526;2023-07-20T06:42:23;98921.22;;;21.89;39.43
27685;BME280;46113;50.130;8.526;2023-07-20T06:44:58;98925.28;;;21.35;40.23
27685;BME280;46113;50.130;8.526;2023-07-20T06:48:12;98920.06;;;21.59;40.21
27685;BME280;46113;50.130;8.526;2023-07-20T06:50:39;98921.34;;;21.04;40.72
27685;BME280;46113;50.130;8.526;2023-07-20T06:53:08;98926.56;;;20.11;42.55
27685;BME280;46113;50.130;8.526;2023-07-20T06:55:43;98928.81;;;20.24;41.76
27685;BME280;46113;50.130;8.526;2023-07-20T06:58:11;98929.66;;;20.60;41.43
27685;BME280;46113;50.130;8.526;2023-07-20T07:00:38;98927.06;;;20.50;42.01
27685;BME280;46113;50.130;8.526;2023-07-20T07:03:05;98914.19;;;21.63;40.52
27685;BME280;46113;50.130;8.526;2023-07-20T07:05:32;98912.69;;;21.36;39.24
27685;BME280;46113;50.130;8.526;2023-07-20T07:08:04;98924.25;;;21.20;40.73
27685;BME280;46113;50.130;8.526;2023-07-20T07:10:31;98925.00;;;20.78;40.30
27685;BME280;46113;50.130;8.526;2023-07-20T07:12:58;98928.22;;;20.39;41.01
27685;BME280;46113;50.130;8.526;2023-07-20T07:15:25;98936.94;;;20.41;42.63
27685;BME280;46113;50.130;8.526;2023-07-20T07:17:54;98933.94;;;20.44;40.53
27685;BME280;46113;50.130;8.526;2023-07-20T07:20:21;98931.06;;;20.46;41.61
27685;BME280;46113;50.130;8.526;2023-07-20T07:22:50;98934.38;;;20.74;40.77
27685;BME280;46113;50.130;8.526;2023-07-20T07:25:16;98942.09;;;20.34;41.46
27685;BME280;46113;50.130;8.526;2023-07-20T07:27:49;98944.69;;;19.10;43.16
27685;BME280;46113;50.130;8.526;2023-07-20T07:30:15;98949.75;;;19.13;43.90
27685;BME280;46113;50.130;8.526;2023-07-20T07:32:42;98949.72;;;18.95;43.99
27685;BME280;46113;50.130;8.526;2023-07-20T07:35:09;98952.94;;;18.99;45.69
27685;BME280;46113;50.130;8.526;2023-07-20T07:37:35;98953.84;;;18.89;44.64
27685;BME280;46113;50.130;8.526;2023-07-20T07:40:22;98953.72;;;18.81;44.75
27685;BME280;46113;50.130;8.526;2023-07-20T07:42:49;98953.59;;;19.01;45.71
27685;BME280;46113;50.130;8.526;2023-07-20T07:45:16;98960.50;;;19.03;45.02
27685;BME280;46113;50.130;8.526;2023-07-20T07:47:43;98961.47;;;18.56;45.37
27685;BME280;46113;50.130;8.526;2023-07-20T07:50:10;98948.38;;;18.05;46.64
27685;BME280;46113;50.130;8.526;2023-07-20T07:52:37;98954.13;;;17.63;47.48
27685;BME280;46113;50.130;8.526;2023-07-20T07:55:04;98956.72;;;17.92;47.68
27685;BME280;46113;50.130;8.526;2023-07-20T07:57:31;98947.38;;;18.16;46.51
27685;BME280;46113;50.130;8.526;2023-07-20T07:59:58;98949.31;;;18.24;46.27
27685;BME280;46113;50.130;8.526;2023-07-20T08:02:24;98950.81;;;19.21;45.31
27685;BME280;46113;50.130;8.526;2023-07-20T08:04:51;98948.72;;;20.83;42.18
27685;BME280;46113;50.130;8.526;2023-07-20T08:07:19;98945.66;;;23.39;38.12
27685;BME280;46113;50.130;8.526;2023-07-20T08:09:45;98941.34;;;25.04;33.83
27685;BME280;46113;50.130;8.526;2023-07-20T08:12:12;98939.47;;;25.92;32.93
27685;BME280;46113;50.130;8.526;2023-07-20T08:14:40;98935.84;;;26.55;31.14
27685;BME280;46113;50.130;8.526;2023-07-20T08:17:06;98944.41;;;28.23;29.77
27685;BME280;46113;50.130;8.526;2023-07-20T08:19:33;98950.22;;;28.40;29.18
27685;BME280;46113;50.130;8.526;2023-07-20T08:22:01;98952.19;;;27.99;28.26
27685;BME280;46113;50.130;8.526;2023-07-20T08:24:28;98940.75;;;26.80;31.07
27685;BME280;46113;50.130;8.526;2023-07-20T08:26:55;98951.63;;;25.74;31.75
27685;BME280;46113;50.130;8.526;2023-07-20T08:29:22;98949.09;;;26.79;30.67
27685;BME280;46113;50.130;8.526;2023-07-20T08:31:49;98942.56;;;28.10;28.70
27685;BME280;46113;50.130;8.526;2023-07-20T08:34:16;98944.34;;;28.96;27.30
27685;BME280;46113;50.130;8.526;2023-07-20T08:36:57;98945.09;;;27.84;28.67
27685;BME280;46113;50.130;8.526;2023-07-20T08:39:24;98940.56;;;26.04;30.21
27685;BME280;46113;50.130;8.526;2023-07-20T08:41:51;98953.75;;;24.98;32.70
27685;BME280;46113;50.130;8.526;2023-07-20T08:44:18;98957.63;;;23.99;34.35
27685;BME280;46113;50.130;8.526;2023-07-20T08:46:46;98957.22;;;21.47;37.29
27685;BME280;46113;50.130;8.526;2023-07-20T08:49:16;98969.84;;;20.78;38.56
27685;BME280;46113;50.130;8.526;2023-07-20T08:51:45;98967.16;;;20.43;39.70
27685;BME280;46113;50.130;8.526;2023-07-20T08:54:13;98969.41;;;20.21;40.46
27685;BME280;46113;50.130;8.526;2023-07-20T08:56:40;98971.66;;;20.08;43.05
27685;BME280;46113;50.130;8.526;2023-07-20T08:59:12;98966.66;;;19.87;44.06
27685;BME280;46113;50.130;8.526;2023-07-20T09:01:40;98968.78;;;20.01;46.45
27685;BME280;46113;50.130;8.526;2023-07-20T09:04:07;98974.25;;;20.18;46.33
27685;BME280;46113;50.130;8.526;2023-07-20T09:06:35;98969.41;;;19.77;45.74
27685;BME280;46113;50.130;8.526;2023-07-20T09:09:02;98969.59;;;20.55;44.48
27685;BME280;46113;50.130;8.526;2023-07-20T09:11:30;98971.56;;;20.52;44.00
27685;BME280;46113;50.130;8.526;2023-07-20T09:14:08;98965.41;;;21.12;42.59
27685;BME280;46113;50.130;8.526;2023-07-20T09:17:01;98968.97;;;21.37;41.30
27685;BME280;46113;50.130;8.526;2023-07-20T09:20:23;98953.16;;;23.91;36.70
27685;BME280;46113;50.130;8.526;2023-07-20T09:27:02;98958.97;;;29.01;28.09
27685;BME280;46113;50.130;8.526;2023-07-20T09:30:08;98964.81;;;28.59;27.60
27685;BME280;46113;50.130;8.526;2023-07-20T09:32:58;98954.41;;;28.43;28.08
27685;BME280;46113;50.130;8.526;2023-07-20T09:39:11;98948.97;;;29.85;26.78
27685;BME280;46113;50.130;8.526;2023-07-20T09:42:45;98950.84;;;26.93;28.88
27685;BME280;46113;50.130;8.526;2023-07-20T09:45:39;98944.09;;;26.34;29.14
27685;BME280;46113;50.130;8.526;2023-07-20T09:48:26;98953.41;;;25.02;31.35
27685;BME280;46113;50.130;8.526;2023-07-20T09:51:15;98961.31;;;24.51;32.23
27685;BME280;46113;50.130;8.526;2023-07-20T10:00:46;98935.63;;;23.01;35.44
27685;BME280;46113;50.130;8.526;2023-07-20T10:03:29;98938.81;;;23.52;34.23
27685;BME280;46113;50.130;8.526;2023-07-20T10:06:05;98941.91;;;23.64;33.24
27685;BME280;46113;50.130;8.526;2023-07-20T10:08:37;98935.41;;;22.80;35.92
27685;BME280;46113;50.130;8.526;2023-07-20T10:11:10;98937.53;;;22.53;35.60
27685;BME280;46113;50.130;8.526;2023-07-20T10:13:38;98941.94;;;21.47;37.06
27685;BME280;46113;50.130;8.526;2023-07-20T10:16:22;98941.75;;;21.65;37.75
27685;BME280;46113;50.130;8.526;2023-07-20T10:19:05;98938.22;;;21.73;37.76
27685;BME280;46113;50.130;8.526;2023-07-20T10:21:47;98934.19;;;21.44;37.91
27685;BME280;46113;50.130;8.526;2023-07-20T10:24:21;98935.91;;;20.77;38.74
27685;BME280;46113;50.130;8.526;2023-07-20T10:26:49;98922.88;;;21.15;38.74
27685;BME280;46113;50.130;8.526;2023-07-20T10:29:16;98929.31;;;20.63;39.25
27685;BME280;46113;50.130;8.526;2023-07-20T10:31:44;98928.31;;;20.64;39.38
27685;BME280;46113;50.130;8.526;2023-07-20T10:34:11;98920.50;;;20.87;38.37
27685;BME280;46113;50.130;8.526;2023-07-20T10:36:46;98918.00;;;21.19;38.02
27685;BME280;46113;50.130;8.526;2023-07-20T10:39:25;98920.94;;;20.74;38.14
27685;BME280;46113;50.130;8.526;2023-07-20T10:44:29;98922.28;;;20.35;39.18
27685;BME280;46113;50.130;8.526;2023-07-20T10:47:03;98917.84;;;20.52;38.87
27685;BME280;46113;50.130;8.526;2023-07-20T10:49:35;98915.13;;;20.44;38.85
27685;BME280;46113;50.130;8.526;2023-07-20T10:52:19;98913.09;;;20.89;38.36
27685;BME280;46113;50.130;8.526;2023-07-20T10:54:48;98905.88;;;20.98;37.37
27685;BME280;46113;50.130;8.526;2023-07-20T10:57:23;98901.16;;;20.84;37.94
27685;BME280;46113;50.130;8.526;2023-07-20T10:59:50;98908.59;;;20.47;37.26
27685;BME280;46113;50.130;8.526;2023-07-20T11:02:18;98903.97;;;20.57;36.66
27685;BME280;46113;50.130;8.526;2023-07-20T11:04:47;98901.16;;;20.75;36.56
27685;BME280;46113;50.130;8.526;2023-07-20T11:07:15;98890.78;;;20.97;36.61
27685;BME280;46113;50.130;8.526;2023-07-20T11:09:43;98896.03;;;21.32;36.22
27685;BME280;46113;50.130;8.526;2023-07-20T11:12:15;98900.34;;;20.83;36.17
27685;BME280;46113;50.130;8.526;2023-07-20T11:14:44;98894.81;;;21.01;35.92
27685;BME280;46113;50.130;8.526;2023-07-20T11:17:19;98895.44;;;20.78;36.63
27685;BME280;46113;50.130;8.526;2023-07-20T11:19:49;98885.88;;;20.68;36.40
27685;BME280;46113;50.130;8.526;2023-07-20T11:22:18;98893.28;;;20.90;36.43
27685;BME280;46113;50.130;8.526;2023-07-20T11:24:46;98900.84;;;21.03;36.59
27685;BME280;46113;50.130;8.526;2023-07-20T11:27:15;98898.69;;;20.47;37.17
27685;BME280;46113;50.130;8.526;2023-07-20T11:29:42;98890.09;;;21.03;36.96
27685;BME280;46113;50.130;8.526;2023-07-20T11:32:08;98888.25;;;21.12;35.80
27685;BME280;46113;50.130;8.526;2023-07-20T11:34:35;98886.56;;;20.95;36.69
27685;BME280;46113;50.130;8.526;2023-07-20T11:37:02;98880.69;;;20.99;36.68
27685;BME280;46113;50.130;8.526;2023-07-20T11:39:33;98876.53;;;21.13;36.98
27685;BME280;46113;50.130;8.526;2023-07-20T11:42:00;98877.47;;;20.79;37.83
27685;BME280;46113;50.130;8.526;2023-07-20T11:44:27;98873.63;;;20.98;37.26
27685;BME280;46113;50.130;8.526;2023-07-20T11:49:38;98876.22;;;21.25;36.57
27685;BME280;46113;50.130;8.526;2023-07-20T11:52:15;98865.94;;;21.12;35.49
27685;BME280;46113;50.130;8.526;2023-07-20T11:54:43;98855.00;;;20.88;36.08
27685;BME280;46113;50.130;8.526;2023-07-20T11:57:18;98865.72;;;20.97;34.98
27685;BME280;46113;50.130;8.526;2023-07-20T12:00:01;98859.72;;;21.36;35.46
27685;BME280;46113;50.130;8.526;2023-07-20T12:02:35;98863.91;;;21.55;34.77
27685;BME280;46113;50.130;8.526;2023-07-20T12:05:03;98867.13;;;21.59;34.76
27685;BME280;46113;50.130;8.526;2023-07-20T12:07:35;98870.97;;;21.56;34.05
27685;BME280;46113;50.130;8.526;2023-07-20T12:10:11;98857.53;;;21.56;33.95
27685;BME280;46113;50.130;8.526;2023-07-20T12:12:43;98860.22;;;21.56;33.24
27685;BME280;46113;50.130;8.526;2023-07-20T12:15:20;98862.72;;;21.66;33.65
27685;BME280;46113;50.130;8.526;2023-07-20T12:17:53;98862.00;;;21.89;33.58
27685;BME280;46113;50.130;8.526;2023-07-20T12:20:30;98858.00;;;21.68;34.07
27685;BME280;46113;50.130;8.526;2023-07-20T12:23:08;98862.38;;;21.53;33.97
27685;BME280;46113;50.130;8.526;2023-07-20T12:25:42;98864.34;;;20.59;34.40
27685;BME280;46113;50.130;8.526;2023-07-20T12:28:17;98853.78;;;20.74;34.48
27685;BME280;46113;50.130;8.526;2023-07-20T12:30:46;98846.88;;;20.72;34.96
27685;BME280;46113;50.130;8.526;2023-07-20T12:33:14;98851.13;;;20.91;34.77
27685;BME280;46113;50.130;8.526;2023-07-20T12:35:43;98842.72;;;20.86;34.84
27685;BME280;46113;50.130;8.526;2023-07-20T12:38:10;98846.59;;;21.08;35.37
27685;BME280;46113;50.130;8.526;2023-07-20T12:40:37;98845.41;;;20.94;34.33
27685;BME280;46113;50.130;8.526;2023-07-20T12:43:03;98836.53;;;21.19;35.36
27685;BME280;46113;50.130;8.526;2023-07-20T12:45:31;98843.38;;;21.04;34.78
27685;BME280;46113;50.130;8.526;2023-07-20T12:47:58;98838.88;;;21.47;35.40
27685;BME280;46113;50.130;8.526;2023-07-20T12:50:25;98829.94;;;21.54;35.30
27685;BME280;46113;50.130;8.526;2023-07-20T12:52:52;98835.84;;;20.83;34.33
27685;BME280;46113;50.130;8.526;2023-07-20T12:55:19;98837.78;;;20.56;35.29
27685;BME280;46113;50.130;8.526;2023-07-20T12:57:46;98826.22;;;20.56;35.01
27685;BME280;46113;50.130;8.526;2023-07-20T13:00:14;98823.91;;;20.94;35.40
27685;BME280;46113;50.130;8.526;2023-07-20T13:02:40;98827.25;;;20.71;34.77
27685;BME280;46113;50.130;8.526;2023-07-20T13:05:08;98829.25;;;20.69;34.92
27685;BME280;46113;50.130;8.526;2023-07-20T13:07:37;98831.47;;;20.82;34.52
27685;BME280;46113;50.130;8.526;2023-07-20T13:10:08;98826.94;;;21.16;34.66
27685;BME280;46113;50.130;8.526;2023-07-20T13:12:35;98828.25;;;21.53;34.48
27685;BME280;46113;50.130;8.526;2023-07-20T13:15:04;98834.88;;;21.91;33.85
27685;BME280;46113;50.130;8.526;2023-07-20T13:17:36;98825.97;;;21.99;33.15
27685;BME280;46113;50.130;8.526;2023-07-20T13:20:03;98827.59;;;22.48;33.88
27685;BME280;46113;50.130;8.526;2023-07-20T13:22:34;98828.22;;;22.58;32.61
27685;BME280;46113;50.130;8.526;2023-07-20T13:25:01;98830.91;;;21.78;33.16
27685;BME280;46113;50.130;8.526;2023-07-20T13:27:28;98821.66;;;22.21;33.52
27685;BME280;46113;50.130;8.526;2023-07-20T13:29:59;98820.53;;;22.47;32.71
27685;BME280;46113;50.130;8.526;2023-07-20T13:32:29;98824.97;;;22.71;32.17
27685;BME280;46113;50.130;8.526;2023-07-20T13:35:00;98819.88;;;22.77;32.57
27685;BME280;46113;50.130;8.526;2023-07-20T13:37:27;98816.28;;;22.53;32.54
27685;BME280;46113;50.130;8.526;2023-07-20T13:39:54;98819.91;;;22.68;31.67
27685;BME280;46113;50.130;8.526;2023-07-20T13:42:22;98820.28;;;22.88;31.84
27685;BME280;46113;50.130;8.526;2023-07-20T13:44:49;98818.31;;;23.21;31.99
27685;BME280;46113;50.130;8.526;2023-07-20T13:47:16;98809.81;;;23.09;31.52
27685;BME280;46113;50.130;8.526;2023-07-20T13:49:45;98810.09;;;22.99;31.18
27685;BME280;46113;50.130;8.526;2023-07-20T13:52:14;98799.03;;;23.09;31.66
27685;BME280;46113;50.130;8.526;2023-07-20T13:54:44;98802.13;;;23.21;31.80